Time,TemperatureF,DewpointF,PressureIn,WindDirection,WindDirectionDegrees,WindSpeedMPH,WindSpeedGustMPH,Humidity,HourlyPrecipIn,Conditions,Clouds,dailyrainin,SoftwareType,DateUTC
2013-03-17 00:03:00,26.0,23.0,30.20,NE,39,2.0,3.0,90,0.00,,,0.00,,2013-03-17 04:03:00,
2013-03-17 00:12:00,26.0,23.0,30.20,NE,39,2.0,3.0,90,0.00,,,0.00,,2013-03-17 04:12:00,
2013-03-17 00:23:00,26.0,23.0,30.20,NNE,32,2.0,7.0,89,0.00,,,0.00,,2013-03-17 04:23:00,
2013-03-17 00:32:00,26.0,23.0,30.20,NNE,33,1.0,5.0,90,0.00,,,0.00,,2013-03-17 04:32:00,
2013-03-17 00:42:00,26.0,23.0,30.20,NNE,33,1.0,5.0,90,0.00,,,0.00,,2013-03-17 04:42:00,
2013-03-17 00:53:00,26.0,23.0,30.19,North,0,0.0,0.0,90,0.00,,,0.00,,2013-03-17 04:53:00,
2013-03-17 01:02:00,26.0,23.0,30.20,NNE,32,1.0,3.0,90,0.00,,,0.00,,2013-03-17 05:02:00,
2013-03-17 01:12:00,26.0,23.0,30.20,NNE,32,1.0,3.0,90,0.00,,,0.00,,2013-03-17 05:12:00,
2013-03-17 01:22:00,25.0,22.0,30.19,NNE,23,3.0,3.0,90,0.00,,,0.00,,2013-03-17 05:22:00,
2013-03-17 01:32:00,25.0,23.0,30.19,NE,38,3.0,7.0,91,0.00,,,0.00,,2013-03-17 05:32:00,
2013-03-17 01:42:00,25.0,23.0,30.19,NE,38,3.0,7.0,91,0.00,,,0.00,,2013-03-17 05:42:00,
2013-03-17 01:52:00,25.0,23.0,30.19,NNE,26,1.0,6.0,92,0.00,,,0.00,,2013-03-17 05:52:00,
2013-03-17 02:02:00,24.0,22.0,30.19,NNE,30,5.0,8.0,93,0.00,,,0.00,,2013-03-17 06:02:00,
2013-03-17 02:12:00,24.0,22.0,30.19,NNE,30,5.0,8.0,93,0.00,,,0.00,,2013-03-17 06:12:00,
2013-03-17 02:22:00,24.0,23.0,30.18,NE,37,2.0,8.0,95,0.00,,,0.00,,2013-03-17 06:22:00,
2013-03-17 02:32:00,24.0,23.0,30.17,NE,35,3.0,9.0,94,0.00,,,0.00,,2013-03-17 06:32:00,
2013-03-17 02:42:00,24.0,23.0,30.17,NE,35,3.0,9.0,94,0.00,,,0.00,,2013-03-17 06:42:00,
2013-03-17 02:52:00,23.0,22.0,30.16,NE,48,2.0,3.0,95,0.00,,,0.00,,2013-03-17 06:52:00,
2013-03-17 03:02:00,23.0,22.0,30.16,NNE,30,3.0,5.0,95,0.00,,,0.00,,2013-03-17 07:02:00,
2013-03-17 03:12:00,23.0,22.0,30.16,NNE,30,3.0,5.0,95,0.00,,,0.00,,2013-03-17 07:12:00,
2013-03-17 03:22:00,23.0,22.0,30.15,NE,48,2.0,5.0,96,0.00,,,0.00,,2013-03-17 07:22:00,
2013-03-17 03:32:00,22.0,21.0,30.15,NE,52,5.0,7.0,96,0.00,,,0.00,,2013-03-17 07:32:00,
2013-03-17 03:42:00,22.0,21.0,30.15,NE,52,5.0,7.0,96,0.00,,,0.00,,2013-03-17 07:42:00,
2013-03-17 03:52:00,22.0,21.0,30.14,ENE,60,5.0,7.0,96,0.00,,,0.00,,2013-03-17 07:52:00,
2013-03-17 04:02:00,21.0,20.0,30.14,NE,51,5.0,9.0,96,0.00,,,0.00,,2013-03-17 08:02:00,
2013-03-17 04:12:00,21.0,19.0,30.14,NE,34,5.0,7.0,93,0.00,,,0.00,,2013-03-17 08:12:00,
2013-03-17 04:22:00,21.0,19.0,30.14,NE,34,5.0,7.0,93,0.00,,,0.00,,2013-03-17 08:22:00,
2013-03-17 04:32:00,21.0,20.0,30.13,NE,51,3.0,6.0,95,0.00,,,0.00,,2013-03-17 08:32:00,
2013-03-17 04:42:00,21.0,20.0,30.13,NE,51,3.0,6.0,95,0.00,,,0.00,,2013-03-17 08:42:00,
2013-03-17 04:52:00,21.0,20.0,30.12,NE,35,5.0,9.0,94,0.00,,,0.00,,2013-03-17 08:52:00,
2013-03-17 05:02:00,21.0,20.0,30.12,ENE,64,3.0,5.0,94,0.00,,,0.00,,2013-03-17 09:02:00,
2013-03-17 05:12:00,21.0,20.0,30.12,ENE,64,3.0,5.0,94,0.00,,,0.00,,2013-03-17 09:12:00,
2013-03-17 05:22:00,20.0,19.0,30.11,NE,42,6.0,9.0,94,0.00,,,0.00,,2013-03-17 09:22:00,
2013-03-17 05:32:00,20.0,19.0,30.11,NNE,25,2.0,5.0,94,0.00,,,0.00,,2013-03-17 09:32:00,
2013-03-17 05:42:00,20.0,19.0,30.11,NNE,25,2.0,5.0,94,0.00,,,0.00,,2013-03-17 09:42:00,
2013-03-17 05:53:00,20.0,18.0,30.10,NE,55,3.0,7.0,93,0.00,,,0.00,,2013-03-17 09:53:00,
2013-03-17 06:03:00,20.0,18.0,30.10,NNE,22,0.0,8.0,92,0.00,,,0.00,,2013-03-17 10:03:00,
2013-03-17 06:13:00,20.0,18.0,30.10,NNE,22,0.0,8.0,92,0.00,,,0.00,,2013-03-17 10:13:00,
2013-03-17 06:23:00,20.0,19.0,30.09,ENE,66,1.0,6.0,94,0.00,,,0.00,,2013-03-17 10:23:00,
2013-03-17 06:33:00,20.0,18.0,30.09,East,81,5.0,8.0,93,0.00,,,0.00,,2013-03-17 10:33:00,
2013-03-17 06:42:00,20.0,18.0,30.09,East,81,5.0,8.0,93,0.00,,,0.00,,2013-03-17 10:42:00,
2013-03-17 06:52:00,19.0,17.0,30.09,East,93,7.0,8.0,91,0.00,,,0.00,,2013-03-17 10:52:00,
2013-03-17 07:02:00,19.0,17.0,30.09,East,84,5.0,9.0,91,0.00,,,0.00,,2013-03-17 11:02:00,
2013-03-17 07:12:00,19.0,17.0,30.09,East,84,5.0,9.0,91,0.00,,,0.00,,2013-03-17 11:12:00,
2013-03-17 07:22:00,19.0,18.0,30.09,East,83,1.0,7.0,94,0.00,,,0.00,,2013-03-17 11:22:00,
2013-03-17 07:32:00,19.0,18.0,30.09,East,86,3.0,3.0,95,0.00,,,0.00,,2013-03-17 11:32:00,
2013-03-17 07:42:00,19.0,18.0,30.09,East,86,3.0,3.0,95,0.00,,,0.00,,2013-03-17 11:42:00,
2013-03-17 07:52:00,19.0,18.0,30.09,East,97,3.0,6.0,96,0.00,,,0.00,,2013-03-17 11:52:00,
2013-03-17 08:02:00,19.0,18.0,30.08,East,82,7.0,8.0,95,0.00,,,0.00,,2013-03-17 12:02:00,
2013-03-17 08:12:00,19.0,18.0,30.08,East,82,7.0,8.0,95,0.00,,,0.00,,2013-03-17 12:12:00,
2013-03-17 08:22:00,19.0,18.0,30.10,ENE,71,3.0,7.0,96,0.00,,,0.00,,2013-03-17 12:22:00,
2013-03-17 08:32:00,19.0,18.0,30.09,ESE,106,6.0,10.0,96,0.00,,,0.00,,2013-03-17 12:32:00,
2013-03-17 08:42:00,19.0,18.0,30.09,ESE,106,6.0,10.0,96,0.00,,,0.00,,2013-03-17 12:42:00,
2013-03-17 08:52:00,19.0,18.0,30.09,East,97,5.0,8.0,96,0.00,,,0.00,,2013-03-17 12:52:00,
2013-03-17 09:02:00,19.0,18.0,30.09,ESE,108,6.0,7.0,96,0.00,,,0.00,,2013-03-17 13:02:00,
2013-03-17 09:12:00,19.0,18.0,30.09,ESE,108,6.0,7.0,96,0.00,,,0.00,,2013-03-17 13:12:00,
2013-03-17 09:22:00,18.0,17.0,30.08,ESE,121,7.0,12.0,96,0.00,,,0.00,,2013-03-17 13:22:00,
2013-03-17 09:32:00,18.0,17.0,30.08,ESE,119,8.0,10.0,96,0.00,,,0.00,,2013-03-17 13:32:00,
2013-03-17 09:42:00,18.0,17.0,30.08,ESE,119,8.0,10.0,96,0.00,,,0.00,,2013-03-17 13:42:00,
2013-03-17 09:52:00,19.0,18.0,30.09,SE,129,7.0,13.0,95,0.00,,,0.00,,2013-03-17 13:52:00,
2013-03-17 10:02:00,18.0,17.0,30.09,ESE,104,7.0,12.0,96,0.00,,,0.00,,2013-03-17 14:02:00,
2013-03-17 10:12:00,18.0,17.0,30.09,ESE,104,7.0,12.0,96,0.00,,,0.00,,2013-03-17 14:12:00,
2013-03-17 10:22:00,18.0,17.0,30.09,ESE,103,8.0,12.0,96,0.00,,,0.00,,2013-03-17 14:22:00,
2013-03-17 10:32:00,18.0,17.0,30.09,ESE,117,6.0,12.0,96,0.00,,,0.00,,2013-03-17 14:32:00,
2013-03-17 10:42:00,18.0,17.0,30.09,ESE,117,6.0,12.0,96,0.00,,,0.00,,2013-03-17 14:42:00,
2013-03-17 10:53:00,19.0,18.0,30.09,SE,137,6.0,12.0,95,0.00,,,0.00,,2013-03-17 14:53:00,
2013-03-17 11:02:00,19.0,18.0,30.09,SE,126,7.0,10.0,95,0.00,,,0.00,,2013-03-17 15:02:00,
2013-03-17 11:12:00,19.0,18.0,30.09,SE,126,7.0,10.0,95,0.00,,,0.00,,2013-03-17 15:12:00,
2013-03-17 11:23:00,19.0,18.0,30.08,ESE,117,10.0,14.0,94,0.00,,,0.00,,2013-03-17 15:23:00,
2013-03-17 11:33:00,19.0,18.0,30.07,SE,131,8.0,10.0,95,0.00,,,0.00,,2013-03-17 15:33:00,
2013-03-17 11:42:00,19.0,18.0,30.07,SE,131,8.0,10.0,95,0.00,,,0.00,,2013-03-17 15:42:00,
2013-03-17 11:53:00,20.0,18.0,30.07,SE,136,8.0,13.0,93,0.00,,,0.00,,2013-03-17 15:53:00,
2013-03-17 12:03:00,21.0,19.0,30.07,SE,137,8.0,10.0,93,0.00,,,0.00,,2013-03-17 16:03:00,
2013-03-17 12:12:00,21.0,19.0,30.07,SE,137,8.0,10.0,93,0.00,,,0.00,,2013-03-17 16:12:00,
2013-03-17 12:22:00,22.0,19.0,30.06,SE,136,8.0,10.0,89,0.00,,,0.00,,2013-03-17 16:22:00,
2013-03-17 12:33:00,23.0,19.0,30.04,SE,137,12.0,16.0,85,0.00,,,0.00,,2013-03-17 16:33:00,
2013-03-17 12:42:00,23.0,19.0,30.04,SE,137,12.0,16.0,85,0.00,,,0.00,,2013-03-17 16:42:00,
2013-03-17 12:52:00,24.0,20.0,30.03,SE,143,7.0,14.0,86,0.00,,,0.00,,2013-03-17 16:52:00,
2013-03-17 13:02:00,24.0,20.0,30.01,SE,132,10.0,14.0,86,0.00,,,0.00,,2013-03-17 17:02:00,
2013-03-17 13:12:00,24.0,20.0,30.01,SE,132,10.0,14.0,86,0.00,,,0.00,,2013-03-17 17:12:00,
2013-03-17 13:22:00,25.0,21.0,30.00,SE,143,10.0,14.0,86,0.00,,,0.00,,2013-03-17 17:22:00,
2013-03-17 13:33:00,26.0,22.0,29.99,SE,131,10.0,14.0,86,0.00,,,0.00,,2013-03-17 17:33:00,
2013-03-17 13:42:00,26.0,22.0,29.99,SE,131,10.0,14.0,86,0.00,,,0.00,,2013-03-17 17:42:00,
2013-03-17 13:53:00,27.0,23.0,29.97,ESE,112,8.0,13.0,84,0.00,,,0.00,,2013-03-17 17:53:00,
2013-03-17 14:02:00,27.0,23.0,29.97,ESE,118,10.0,14.0,83,0.00,,,0.00,,2013-03-17 18:02:00,
2013-03-17 14:12:00,27.0,23.0,29.97,ESE,118,10.0,14.0,83,0.00,,,0.00,,2013-03-17 18:12:00,
2013-03-17 14:22:00,29.0,25.0,29.96,SE,137,7.0,12.0,83,0.00,,,0.00,,2013-03-17 18:22:00,
2013-03-17 14:32:00,30.0,25.0,29.95,SE,134,7.0,10.0,82,0.00,,,0.00,,2013-03-17 18:32:00,
2013-03-17 14:42:00,30.0,25.0,29.95,SE,134,7.0,10.0,82,0.00,,,0.00,,2013-03-17 18:42:00,
2013-03-17 14:52:00,30.0,24.0,29.93,SE,133,10.0,15.0,79,0.00,,,0.00,,2013-03-17 18:52:00,
2013-03-17 15:02:00,30.0,25.0,29.93,SE,133,8.0,14.0,81,0.00,,,0.00,,2013-03-17 19:02:00,
2013-03-17 15:12:00,30.0,25.0,29.93,SE,133,8.0,14.0,81,0.00,,,0.00,,2013-03-17 19:12:00,
2013-03-17 15:22:00,31.0,26.0,29.91,SE,130,13.0,16.0,80,0.00,,,0.00,,2013-03-17 19:22:00,
2013-03-17 15:33:00,32.0,27.0,29.91,SE,125,10.0,16.0,81,0.00,,,0.00,,2013-03-17 19:33:00,
2013-03-17 15:42:00,32.0,27.0,29.91,SE,125,10.0,16.0,81,0.00,,,0.00,,2013-03-17 19:42:00,
2013-03-17 15:53:00,32.0,26.0,29.89,SE,136,13.0,21.0,79,0.00,,,0.00,,2013-03-17 19:53:00,
2013-03-17 16:02:00,33.0,28.0,29.88,SSE,148,10.0,16.0,80,0.00,,,0.00,,2013-03-17 20:02:00,
2013-03-17 16:12:00,33.0,28.0,29.88,SSE,148,10.0,16.0,80,0.00,,,0.00,,2013-03-17 20:12:00,
2013-03-17 16:22:00,34.0,28.0,29.86,SE,146,7.0,10.0,80,0.00,,,0.00,,2013-03-17 20:22:00,
2013-03-17 16:32:00,34.0,28.0,29.85,SE,132,12.0,15.0,79,0.00,,,0.00,,2013-03-17 20:32:00,
2013-03-17 16:42:00,34.0,28.0,29.85,SE,132,12.0,15.0,79,0.00,,,0.00,,2013-03-17 20:42:00,
2013-03-17 16:52:00,35.0,28.0,29.84,SE,131,13.0,16.0,76,0.00,,,0.00,,2013-03-17 20:52:00,
2013-03-17 17:02:00,36.0,29.0,29.83,SE,144,8.0,14.0,77,0.00,,,0.00,,2013-03-17 21:02:00,
2013-03-17 17:12:00,36.0,29.0,29.83,SE,144,8.0,14.0,77,0.00,,,0.00,,2013-03-17 21:12:00,
2013-03-17 17:22:00,36.0,29.0,29.81,SE,136,10.0,17.0,76,0.00,,,0.00,,2013-03-17 21:22:00,
2013-03-17 17:33:00,36.0,29.0,29.81,SSE,158,7.0,14.0,77,0.00,,,0.00,,2013-03-17 21:33:00,
2013-03-17 17:42:00,36.0,29.0,29.81,SSE,158,7.0,14.0,77,0.00,,,0.00,,2013-03-17 21:42:00,
2013-03-17 17:52:00,36.0,30.0,29.80,SE,138,9.0,12.0,78,0.00,,,0.00,,2013-03-17 21:52:00,
2013-03-17 18:03:00,37.0,30.0,29.79,SSE,154,9.0,21.0,77,0.00,,,0.00,,2013-03-17 22:03:00,
2013-03-17 18:12:00,37.0,30.0,29.78,SE,134,9.0,17.0,76,0.00,,,0.00,,2013-03-17 22:12:00,
2013-03-17 18:23:00,37.0,30.0,29.78,SE,134,9.0,17.0,76,0.00,,,0.00,,2013-03-17 22:23:00,
2013-03-17 18:33:00,37.0,30.0,29.78,SE,133,13.0,16.0,76,0.00,,,0.00,,2013-03-17 22:33:00,
2013-03-17 18:42:00,37.0,30.0,29.78,SE,133,13.0,16.0,76,0.00,,,0.00,,2013-03-17 22:42:00,
2013-03-17 18:53:00,37.0,30.0,29.77,SE,138,14.0,20.0,76,0.00,,,0.00,,2013-03-17 22:53:00,
2013-03-17 19:02:00,38.0,31.0,29.76,SSE,147,10.0,16.0,76,0.00,,,0.00,,2013-03-17 23:02:00,
2013-03-17 19:12:00,38.0,31.0,29.76,SSE,147,10.0,16.0,76,0.00,,,0.00,,2013-03-17 23:12:00,
2013-03-17 19:22:00,38.0,31.0,29.76,SE,145,10.0,13.0,77,0.00,,,0.00,,2013-03-17 23:22:00,
2013-03-17 19:32:00,38.0,31.0,29.76,SE,140,12.0,21.0,76,0.00,,,0.00,,2013-03-17 23:32:00,
2013-03-17 19:42:00,38.0,31.0,29.76,SE,140,12.0,21.0,76,0.00,,,0.00,,2013-03-17 23:42:00,
2013-03-17 19:53:00,38.0,31.0,29.77,SE,131,6.0,12.0,77,0.00,,,0.00,,2013-03-17 23:53:00,
2013-03-17 20:03:00,38.0,31.0,29.78,SSE,161,8.0,15.0,77,0.00,,,0.00,,2013-03-18 00:03:00,
2013-03-17 20:12:00,38.0,31.0,29.78,SSE,161,8.0,15.0,77,0.00,,,0.00,,2013-03-18 00:12:00,
2013-03-17 20:22:00,38.0,32.0,29.78,SSE,153,5.0,7.0,78,0.00,,,0.00,,2013-03-18 00:22:00,
2013-03-17 20:33:00,38.0,32.0,29.78,SE,130,3.0,8.0,78,0.00,,,0.00,,2013-03-18 00:33:00,
2013-03-17 20:42:00,38.0,32.0,29.78,SE,130,3.0,8.0,78,0.00,,,0.00,,2013-03-18 00:42:00,
2013-03-17 20:52:00,38.0,32.0,29.78,SSE,151,3.0,7.0,79,0.00,,,0.00,,2013-03-18 00:52:00,
2013-03-17 21:01:00,38.0,32.0,29.78,SE,142,6.0,8.0,80,0.00,,,0.00,,2013-03-18 01:01:00,
2013-03-17 21:12:00,38.0,32.0,29.78,SE,142,6.0,8.0,80,0.00,,,0.00,,2013-03-18 01:12:00,
2013-03-17 21:22:00,37.0,32.0,29.78,SE,136,6.0,9.0,82,0.00,,,0.00,,2013-03-18 01:22:00,
2013-03-17 21:32:00,37.0,32.0,29.77,SE,140,6.0,9.0,83,0.00,,,0.00,,2013-03-18 01:32:00,
2013-03-17 21:42:00,37.0,32.0,29.77,SE,140,6.0,9.0,83,0.00,,,0.00,,2013-03-18 01:42:00,
2013-03-17 21:52:00,36.0,32.0,29.77,SE,129,9.0,12.0,85,0.00,,,0.00,,2013-03-18 01:52:00,
2013-03-17 22:02:00,36.0,32.0,29.76,SSE,147,8.0,9.0,86,0.00,,,0.00,,2013-03-18 02:02:00,
2013-03-17 22:22:00,36.0,32.0,29.77,SE,140,6.0,8.0,86,0.00,,,0.00,,2013-03-18 02:22:00,
2013-03-17 22:32:00,36.0,32.0,29.77,SE,132,8.0,12.0,86,0.00,,,0.00,,2013-03-18 02:32:00,
2013-03-17 22:42:00,36.0,32.0,29.77,SE,132,8.0,12.0,86,0.00,,,0.00,,2013-03-18 02:42:00,
2013-03-17 22:52:00,36.0,33.0,29.77,SE,139,9.0,13.0,87,0.00,,,0.00,,2013-03-18 02:52:00,
2013-03-17 23:02:00,36.0,33.0,29.76,SE,132,12.0,15.0,88,0.00,,,0.00,,2013-03-18 03:02:00,
2013-03-17 23:11:00,36.0,33.0,29.76,SSE,149,12.0,16.0,88,0.00,,,0.00,,2013-03-18 03:11:00,
2013-03-17 23:22:00,36.0,33.0,29.76,SSE,149,12.0,16.0,88,0.00,,,0.00,,2013-03-18 03:22:00,
2013-03-17 23:33:00,36.0,33.0,29.76,SSE,162,7.0,14.0,89,0.00,,,0.00,,2013-03-18 03:33:00,
2013-03-17 23:42:00,36.0,33.0,29.76,SSE,162,7.0,14.0,89,0.00,,,0.00,,2013-03-18 03:42:00,
2013-03-17 23:53:00,36.0,34.0,29.73,SE,136,14.0,18.0,91,0.00,,,0.00,,2013-03-18 03:53:00,